sensor_id;sensor_type;location;lat;lon;timestamp;temperature;humidity
3868;DHT22;1949;48.152;11.528;2022-12-17T00:01:27;5.50;46.00
3868;DHT22;1949;48.152;11.528;2022-12-17T00:04:11;5.50;46.10
3868;DHT22;1949;48.152;11.528;2022-12-17T00:06:55;5.60;46.10
3868;DHT22;1949;48.152;11.528;2022-12-17T00:09:39;5.60;46.10
3868;DHT22;1949;48.152;11.528;2022-12-17T00:12:25;5.50;46.00
3868;DHT22;1949;48.152;11.528;2022-12-17T00:15:10;5.50;46.00
3868;DHT22;1949;48.152;11.528;2022-12-17T00:18:05;5.60;46.10
3868;DHT22;1949;48.152;11.528;2022-12-17T00:20:58;5.60;46.00
3868;DHT22;1949;48.152;11.528;2022-12-17T00:23:43;5.60;46.00
3868;DHT22;1949;48.152;11.528;2022-12-17T00:26:29;5.60;45.90
3868;DHT22;1949;48.152;11.528;2022-12-17T00:29:24;5.60;45.90
3868;DHT22;1949;48.152;11.528;2022-12-17T00:32:10;5.50;45.80
3868;DHT22;1949;48.152;11.528;2022-12-17T00:34:54;5.50;45.90
3868;DHT22;1949;48.152;11.528;2022-12-17T00:37:39;5.50;45.90
3868;DHT22;1949;48.152;11.528;2022-12-17T00:40:26;5.50;45.90
3868;DHT22;1949;48.152;11.528;2022-12-17T00:43:12;5.50;45.90
3868;DHT22;1949;48.152;11.528;2022-12-17T00:45:59;5.40;45.90
3868;DHT22;1949;48.152;11.528;2022-12-17T00:48:43;5.60;46.00
3868;DHT22;1949;48.152;11.528;2022-12-17T00:51:28;5.40;45.90
3868;DHT22;1949;48.152;11.528;2022-12-17T00:54:12;5.40;45.90
3868;DHT22;1949;48.152;11.528;2022-12-17T00:56:57;5.40;46.00
3868;DHT22;1949;48.152;11.528;2022-12-17T00:59:41;5.50;46.00
3868;DHT22;1949;48.152;11.528;2022-12-17T01:02:28;5.50;45.80
3868;DHT22;1949;48.152;11.528;2022-12-17T01:05:13;5.40;45.80
3868;DHT22;1949;48.152;11.528;2022-12-17T01:08:06;5.40;45.90
3868;DHT22;1949;48.152;11.528;2022-12-17T01:10:52;5.50;46.00
3868;DHT22;1949;48.152;11.528;2022-12-17T01:13:36;5.40;45.80
3868;DHT22;1949;48.152;11.528;2022-12-17T01:16:20;5.40;45.80
3868;DHT22;1949;48.152;11.528;2022-12-17T01:19:05;5.40;45.80
3868;DHT22;1949;48.152;11.528;2022-12-17T01:21:55;5.40;45.80
3868;DHT22;1949;48.152;11.528;2022-12-17T01:24:39;5.40;45.70
3868;DHT22;1949;48.152;11.528;2022-12-17T01:27:31;5.40;45.80
3868;DHT22;1949;48.152;11.528;2022-12-17T01:30:16;5.40;45.80
3868;DHT22;1949;48.152;11.528;2022-12-17T01:33:07;5.40;45.70
3868;DHT22;1949;48.152;11.528;2022-12-17T01:35:56;5.40;45.80
3868;DHT22;1949;48.152;11.528;2022-12-17T01:38:44;5.40;45.80
3868;DHT22;1949;48.152;11.528;2022-12-17T01:41:48;5.40;45.80
3868;DHT22;1949;48.152;11.528;2022-12-17T01:44:47;5.40;45.80
3868;DHT22;1949;48.152;11.528;2022-12-17T01:50:40;5.40;45.80
3868;DHT22;1949;48.152;11.528;2022-12-17T01:53:35;5.40;45.70
3868;DHT22;1949;48.152;11.528;2022-12-17T01:56:22;5.40;45.80
3868;DHT22;1949;48.152;11.528;2022-12-17T01:59:08;5.40;45.80
3868;DHT22;1949;48.152;11.528;2022-12-17T02:01:54;5.40;45.70
3868;DHT22;1949;48.152;11.528;2022-12-17T02:04:40;5.40;45.80
3868;DHT22;1949;48.152;11.528;2022-12-17T02:07:44;5.40;45.80
3868;DHT22;1949;48.152;11.528;2022-12-17T02:10:38;5.40;45.80
3868;DHT22;1949;48.152;11.528;2022-12-17T02:13:37;5.40;45.70
3868;DHT22;1949;48.152;11.528;2022-12-17T02:16:30;5.40;45.70
3868;DHT22;1949;48.152;11.528;2022-12-17T02:22:59;5.40;45.70
3868;DHT22;1949;48.152;11.528;2022-12-17T02:26:00;5.50;45.80
3868;DHT22;1949;48.152;11.528;2022-12-17T02:28:47;5.40;45.50
3868;DHT22;1949;48.152;11.528;2022-12-17T02:31:34;5.40;45.60
3868;DHT22;1949;48.152;11.528;2022-12-17T02:34:22;5.40;45.60
3868;DHT22;1949;48.152;11.528;2022-12-17T02:37:08;5.40;45.50
3868;DHT22;1949;48.152;11.528;2022-12-17T02:39:53;5.40;45.60
3868;DHT22;1949;48.152;11.528;2022-12-17T02:42:41;5.40;45.60
3868;DHT22;1949;48.152;11.528;2022-12-17T02:45:25;5.30;45.50
3868;DHT22;1949;48.152;11.528;2022-12-17T02:48:12;5.30;45.50
3868;DHT22;1949;48.152;11.528;2022-12-17T02:50:57;5.30;45.50
3868;DHT22;1949;48.152;11.528;2022-12-17T02:53:50;5.30;45.60
3868;DHT22;1949;48.152;11.528;2022-12-17T02:56:40;5.30;45.60
3868;DHT22;1949;48.152;11.528;2022-12-17T02:59:24;5.30;45.60
3868;DHT22;1949;48.152;11.528;2022-12-17T03:02:08;5.30;45.60
3868;DHT22;1949;48.152;11.528;2022-12-17T03:04:53;5.30;45.40
3868;DHT22;1949;48.152;11.528;2022-12-17T03:07:39;5.30;45.50
3868;DHT22;1949;48.152;11.528;2022-12-17T03:10:23;5.30;45.50
3868;DHT22;1949;48.152;11.528;2022-12-17T03:13:21;5.30;45.60
3868;DHT22;1949;48.152;11.528;2022-12-17T03:16:13;5.30;45.60
3868;DHT22;1949;48.152;11.528;2022-12-17T03:18:59;5.30;45.60
3868;DHT22;1949;48.152;11.528;2022-12-17T03:21:44;5.40;45.60
3868;DHT22;1949;48.152;11.528;2022-12-17T03:24:30;5.50;45.70
3868;DHT22;1949;48.152;11.528;2022-12-17T03:27:16;5.40;45.50
3868;DHT22;1949;48.152;11.528;2022-12-17T03:30:01;5.40;45.40
3868;DHT22;1949;48.152;11.528;2022-12-17T03:32:45;5.30;45.20
3868;DHT22;1949;48.152;11.528;2022-12-17T03:35:29;5.20;45.30
3868;DHT22;1949;48.152;11.528;2022-12-17T03:38:15;5.20;45.30
3868;DHT22;1949;48.152;11.528;2022-12-17T03:41:00;5.20;45.40
3868;DHT22;1949;48.152;11.528;2022-12-17T03:43:44;5.30;45.50
3868;DHT22;1949;48.152;11.528;2022-12-17T03:46:30;5.20;45.20
3868;DHT22;1949;48.152;11.528;2022-12-17T03:49:18;5.10;45.10
3868;DHT22;1949;48.152;11.528;2022-12-17T03:52:03;5.10;45.40
3868;DHT22;1949;48.152;11.528;2022-12-17T03:54:47;5.10;45.60
3868;DHT22;1949;48.152;11.528;2022-12-17T03:57:32;5.10;45.60
3868;DHT22;1949;48.152;11.528;2022-12-17T04:00:19;5.10;45.50
3868;DHT22;1949;48.152;11.528;2022-12-17T04:03:03;5.10;45.40
3868;DHT22;1949;48.152;11.528;2022-12-17T04:05:48;5.10;45.40
3868;DHT22;1949;48.152;11.528;2022-12-17T04:08:33;5.10;45.30
3868;DHT22;1949;48.152;11.528;2022-12-17T04:11:18;5.10;45.20
3868;DHT22;1949;48.152;11.528;2022-12-17T04:14:02;5.10;45.40
3868;DHT22;1949;48.152;11.528;2022-12-17T04:16:46;5.10;45.30
3868;DHT22;1949;48.152;11.528;2022-12-17T04:19:31;5.10;45.40
3868;DHT22;1949;48.152;11.528;2022-12-17T04:22:16;5.00;45.20
3868;DHT22;1949;48.152;11.528;2022-12-17T04:25:01;5.20;45.50
3868;DHT22;1949;48.152;11.528;2022-12-17T04:27:45;5.00;45.40
3868;DHT22;1949;48.152;11.528;2022-12-17T04:30:35;5.10;45.40
3868;DHT22;1949;48.152;11.528;2022-12-17T04:33:23;5.00;45.20
3868;DHT22;1949;48.152;11.528;2022-12-17T04:36:08;5.00;45.30
3868;DHT22;1949;48.152;11.528;2022-12-17T04:38:52;5.00;45.40
3868;DHT22;1949;48.152;11.528;2022-12-17T04:41:37;5.00;45.20
3868;DHT22;1949;48.152;11.528;2022-12-17T04:44:21;5.00;45.30
3868;DHT22;1949;48.152;11.528;2022-12-17T04:47:07;5.10;45.40
3868;DHT22;1949;48.152;11.528;2022-12-17T04:49:52;5.10;45.30
3868;DHT22;1949;48.152;11.528;2022-12-17T04:52:49;5.10;45.40
3868;DHT22;1949;48.152;11.528;2022-12-17T04:55:33;5.10;45.30
3868;DHT22;1949;48.152;11.528;2022-12-17T04:58:18;5.10;45.20
3868;DHT22;1949;48.152;11.528;2022-12-17T05:01:02;5.00;45.00
3868;DHT22;1949;48.152;11.528;2022-12-17T05:03:46;5.00;45.20
3868;DHT22;1949;48.152;11.528;2022-12-17T05:06:32;5.00;45.30
3868;DHT22;1949;48.152;11.528;2022-12-17T05:09:17;5.00;45.80
3868;DHT22;1949;48.152;11.528;2022-12-17T05:12:01;5.00;45.30
3868;DHT22;1949;48.152;11.528;2022-12-17T05:14:47;5.00;45.30
3868;DHT22;1949;48.152;11.528;2022-12-17T05:17:32;5.00;45.20
3868;DHT22;1949;48.152;11.528;2022-12-17T05:20:17;5.10;45.20
3868;DHT22;1949;48.152;11.528;2022-12-17T05:23:06;5.00;45.20
3868;DHT22;1949;48.152;11.528;2022-12-17T05:26:03;5.00;45.10
3868;DHT22;1949;48.152;11.528;2022-12-17T05:28:49;5.00;45.20
3868;DHT22;1949;48.152;11.528;2022-12-17T05:31:33;5.00;45.10
3868;DHT22;1949;48.152;11.528;2022-12-17T05:34:19;5.00;45.20
3868;DHT22;1949;48.152;11.528;2022-12-17T05:37:05;5.00;45.20
3868;DHT22;1949;48.152;11.528;2022-12-17T05:39:50;5.00;45.10
3868;DHT22;1949;48.152;11.528;2022-12-17T05:42:41;5.10;45.00
3868;DHT22;1949;48.152;11.528;2022-12-17T05:45:26;4.90;44.80
3868;DHT22;1949;48.152;11.528;2022-12-17T05:48:11;4.90;44.80
3868;DHT22;1949;48.152;11.528;2022-12-17T05:50:56;4.70;44.60
3868;DHT22;1949;48.152;11.528;2022-12-17T05:53:42;4.70;44.90
3868;DHT22;1949;48.152;11.528;2022-12-17T05:56:27;4.70;45.10
3868;DHT22;1949;48.152;11.528;2022-12-17T05:59:12;4.70;45.00
3868;DHT22;1949;48.152;11.528;2022-12-17T06:01:58;4.70;45.10
3868;DHT22;1949;48.152;11.528;2022-12-17T06:04:42;4.70;45.10
3868;DHT22;1949;48.152;11.528;2022-12-17T06:07:27;4.70;45.00
3868;DHT22;1949;48.152;11.528;2022-12-17T06:10:12;4.70;45.20
3868;DHT22;1949;48.152;11.528;2022-12-17T06:12:57;4.70;45.10
3868;DHT22;1949;48.152;11.528;2022-12-17T06:15:42;4.70;45.00
3868;DHT22;1949;48.152;11.528;2022-12-17T06:18:27;4.70;45.00
3868;DHT22;1949;48.152;11.528;2022-12-17T06:21:14;4.80;45.10
3868;DHT22;1949;48.152;11.528;2022-12-17T06:24:04;4.80;45.10
3868;DHT22;1949;48.152;11.528;2022-12-17T06:26:48;4.80;44.90
3868;DHT22;1949;48.152;11.528;2022-12-17T06:29:32;4.80;45.00
3868;DHT22;1949;48.152;11.528;2022-12-17T06:32:17;4.90;44.90
3868;DHT22;1949;48.152;11.528;2022-12-17T06:35:01;4.90;44.90
3868;DHT22;1949;48.152;11.528;2022-12-17T06:37:47;4.90;44.90
3868;DHT22;1949;48.152;11.528;2022-12-17T06:40:32;4.90;44.90
3868;DHT22;1949;48.152;11.528;2022-12-17T06:43:18;4.90;44.90
3868;DHT22;1949;48.152;11.528;2022-12-17T06:46:03;4.90;44.80
3868;DHT22;1949;48.152;11.528;2022-12-17T06:48:54;4.90;44.60
3868;DHT22;1949;48.152;11.528;2022-12-17T06:51:39;4.80;44.50
3868;DHT22;1949;48.152;11.528;2022-12-17T06:54:23;4.80;44.60
3868;DHT22;1949;48.152;11.528;2022-12-17T06:57:14;4.80;44.70
3868;DHT22;1949;48.152;11.528;2022-12-17T06:59:58;4.80;44.60
3868;DHT22;1949;48.152;11.528;2022-12-17T07:02:44;4.80;44.60
3868;DHT22;1949;48.152;11.528;2022-12-17T07:05:30;4.80;44.60
3868;DHT22;1949;48.152;11.528;2022-12-17T07:08:16;4.80;44.50
3868;DHT22;1949;48.152;11.528;2022-12-17T07:11:01;4.80;44.50
3868;DHT22;1949;48.152;11.528;2022-12-17T07:13:46;4.70;44.30
3868;DHT22;1949;48.152;11.528;2022-12-17T07:16:32;4.60;44.30
3868;DHT22;1949;48.152;11.528;2022-12-17T07:19:17;4.60;44.40
3868;DHT22;1949;48.152;11.528;2022-12-17T07:22:04;4.60;44.50
3868;DHT22;1949;48.152;11.528;2022-12-17T07:24:49;4.60;44.40
3868;DHT22;1949;48.152;11.528;2022-12-17T07:27:39;4.60;44.40
3868;DHT22;1949;48.152;11.528;2022-12-17T07:30:23;4.60;44.40
3868;DHT22;1949;48.152;11.528;2022-12-17T07:33:09;4.70;44.50
3868;DHT22;1949;48.152;11.528;2022-12-17T07:35:55;4.50;44.30
3868;DHT22;1949;48.152;11.528;2022-12-17T07:38:41;4.50;44.40
3868;DHT22;1949;48.152;11.528;2022-12-17T07:41:25;4.60;44.40
3868;DHT22;1949;48.152;11.528;2022-12-17T07:44:10;4.50;44.40
3868;DHT22;1949;48.152;11.528;2022-12-17T07:46:55;4.50;44.40
3868;DHT22;1949;48.152;11.528;2022-12-17T07:49:40;4.50;44.30
3868;DHT22;1949;48.152;11.528;2022-12-17T07:52:28;4.50;44.40
3868;DHT22;1949;48.152;11.528;2022-12-17T07:55:12;4.60;44.40
3868;DHT22;1949;48.152;11.528;2022-12-17T07:57:59;4.50;44.30
3868;DHT22;1949;48.152;11.528;2022-12-17T08:00:44;4.60;44.40
3868;DHT22;1949;48.152;11.528;2022-12-17T08:03:31;4.60;44.40
3868;DHT22;1949;48.152;11.528;2022-12-17T08:06:15;4.60;44.30
3868;DHT22;1949;48.152;11.528;2022-12-17T08:08:59;4.60;44.30
3868;DHT22;1949;48.152;11.528;2022-12-17T08:11:43;4.70;44.30
3868;DHT22;1949;48.152;11.528;2022-12-17T08:14:28;4.60;44.20
3868;DHT22;1949;48.152;11.528;2022-12-17T08:17:14;4.60;44.10
3868;DHT22;1949;48.152;11.528;2022-12-17T08:19:58;4.60;44.10
3868;DHT22;1949;48.152;11.528;2022-12-17T08:22:43;4.60;44.00
3868;DHT22;1949;48.152;11.528;2022-12-17T08:25:28;4.60;44.00
3868;DHT22;1949;48.152;11.528;2022-12-17T08:28:15;4.60;44.20
3868;DHT22;1949;48.152;11.528;2022-12-17T08:31:03;4.60;44.20
3868;DHT22;1949;48.152;11.528;2022-12-17T08:33:48;4.60;44.20
3868;DHT22;1949;48.152;11.528;2022-12-17T08:36:32;4.60;44.10
3868;DHT22;1949;48.152;11.528;2022-12-17T08:39:18;4.60;44.00
3868;DHT22;1949;48.152;11.528;2022-12-17T08:42:03;4.60;44.00
3868;DHT22;1949;48.152;11.528;2022-12-17T08:44:47;4.60;44.00
3868;DHT22;1949;48.152;11.528;2022-12-17T08:47:33;4.60;44.00
3868;DHT22;1949;48.152;11.528;2022-12-17T08:50:18;4.60;44.00
3868;DHT22;1949;48.152;11.528;2022-12-17T08:53:03;4.60;44.00
3868;DHT22;1949;48.152;11.528;2022-12-17T08:55:47;4.70;44.10
3868;DHT22;1949;48.152;11.528;2022-12-17T08:58:51;4.70;44.10
3868;DHT22;1949;48.152;11.528;2022-12-17T09:01:35;4.70;43.90
3868;DHT22;1949;48.152;11.528;2022-12-17T09:04:19;4.60;43.70
3868;DHT22;1949;48.152;11.528;2022-12-17T09:07:03;4.60;44.00
3868;DHT22;1949;48.152;11.528;2022-12-17T09:09:48;4.60;43.90
3868;DHT22;1949;48.152;11.528;2022-12-17T09:12:32;4.60;44.00
3868;DHT22;1949;48.152;11.528;2022-12-17T09:15:18;4.60;43.90
3868;DHT22;1949;48.152;11.528;2022-12-17T09:18:03;4.60;43.90
3868;DHT22;1949;48.152;11.528;2022-12-17T09:20:54;4.60;44.00
3868;DHT22;1949;48.152;11.528;2022-12-17T09:23:47;4.60;43.90
3868;DHT22;1949;48.152;11.528;2022-12-17T09:26:33;4.60;43.90
3868;DHT22;1949;48.152;11.528;2022-12-17T09:29:17;4.70;43.90
3868;DHT22;1949;48.152;11.528;2022-12-17T09:32:02;4.70;43.90
3868;DHT22;1949;48.152;11.528;2022-12-17T09:34:46;4.70;43.90
3868;DHT22;1949;48.152;11.528;2022-12-17T09:37:31;4.70;43.70
3868;DHT22;1949;48.152;11.528;2022-12-17T09:40:22;4.70;43.70
3868;DHT22;1949;48.152;11.528;2022-12-17T09:46:59;4.60;43.60
3868;DHT22;1949;48.152;11.528;2022-12-17T09:49:46;4.70;43.80
3868;DHT22;1949;48.152;11.528;2022-12-17T09:52:35;4.60;43.60
3868;DHT22;1949;48.152;11.528;2022-12-17T09:55:31;4.60;43.60
3868;DHT22;1949;48.152;11.528;2022-12-17T09:58:24;4.60;43.50
3868;DHT22;1949;48.152;11.528;2022-12-17T10:01:23;4.60;43.80
3868;DHT22;1949;48.152;11.528;2022-12-17T10:04:15;4.60;43.90
3868;DHT22;1949;48.152;11.528;2022-12-17T10:07:01;4.60;43.80
3868;DHT22;1949;48.152;11.528;2022-12-17T10:09:50;4.70;43.70
3868;DHT22;1949;48.152;11.528;2022-12-17T10:12:35;4.70;43.70
3868;DHT22;1949;48.152;11.528;2022-12-17T10:15:20;4.70;43.70
3868;DHT22;1949;48.152;11.528;2022-12-17T10:18:06;4.80;43.80
3868;DHT22;1949;48.152;11.528;2022-12-17T10:20:59;4.80;43.70
3868;DHT22;1949;48.152;11.528;2022-12-17T10:23:45;5.00;43.90
3868;DHT22;1949;48.152;11.528;2022-12-17T10:26:32;4.90;43.80
3868;DHT22;1949;48.152;11.528;2022-12-17T10:29:20;4.90;43.60
3868;DHT22;1949;48.152;11.528;2022-12-17T10:32:11;4.90;43.50
3868;DHT22;1949;48.152;11.528;2022-12-17T10:35:21;4.90;43.30
3868;DHT22;1949;48.152;11.528;2022-12-17T10:38:26;4.90;43.50
3868;DHT22;1949;48.152;11.528;2022-12-17T10:41:33;4.90;43.50
3868;DHT22;1949;48.152;11.528;2022-12-17T10:44:37;4.80;43.60
3868;DHT22;1949;48.152;11.528;2022-12-17T10:47:23;4.90;43.60
3868;DHT22;1949;48.152;11.528;2022-12-17T10:50:13;4.90;43.50
3868;DHT22;1949;48.152;11.528;2022-12-17T10:52:58;4.90;43.50
3868;DHT22;1949;48.152;11.528;2022-12-17T10:55:51;4.90;43.60
3868;DHT22;1949;48.152;11.528;2022-12-17T10:58:43;4.90;43.70
3868;DHT22;1949;48.152;11.528;2022-12-17T11:01:29;4.90;43.70
3868;DHT22;1949;48.152;11.528;2022-12-17T11:04:50;5.00;43.80
3868;DHT22;1949;48.152;11.528;2022-12-17T11:07:42;5.10;43.80
3868;DHT22;1949;48.152;11.528;2022-12-17T11:10:31;5.20;43.70
3868;DHT22;1949;48.152;11.528;2022-12-17T11:13:43;5.20;43.70
3868;DHT22;1949;48.152;11.528;2022-12-17T11:16:34;5.30;43.70
3868;DHT22;1949;48.152;11.528;2022-12-17T11:25:28;5.50;43.70
3868;DHT22;1949;48.152;11.528;2022-12-17T11:28:25;5.60;43.70
3868;DHT22;1949;48.152;11.528;2022-12-17T11:37:20;5.80;43.70
3868;DHT22;1949;48.152;11.528;2022-12-17T11:40:40;5.90;43.60
3868;DHT22;1949;48.152;11.528;2022-12-17T11:56:15;6.20;43.40
3868;DHT22;1949;48.152;11.528;2022-12-17T11:59:15;6.30;43.40
3868;DHT22;1949;48.152;11.528;2022-12-17T12:02:20;6.30;43.30
3868;DHT22;1949;48.152;11.528;2022-12-17T12:05:27;6.40;43.30
3868;DHT22;1949;48.152;11.528;2022-12-17T12:08:29;6.40;43.30
3868;DHT22;1949;48.152;11.528;2022-12-17T12:26:32;7.00;43.30
3868;DHT22;1949;48.152;11.528;2022-12-17T12:29:35;7.10;43.30
3868;DHT22;1949;48.152;11.528;2022-12-17T12:32:42;7.20;43.30
3868;DHT22;1949;48.152;11.528;2022-12-17T12:35:31;7.30;43.20
3868;DHT22;1949;48.152;11.528;2022-12-17T12:38:22;7.40;43.10
3868;DHT22;1949;48.152;11.528;2022-12-17T12:41:47;7.50;43.10
3868;DHT22;1949;48.152;11.528;2022-12-17T12:48:00;7.70;43.10
3868;DHT22;1949;48.152;11.528;2022-12-17T12:51:19;7.70;42.80
3868;DHT22;1949;48.152;11.528;2022-12-17T12:57:31;7.60;42.80
3868;DHT22;1949;48.152;11.528;2022-12-17T13:03:28;7.60;42.70
3868;DHT22;1949;48.152;11.528;2022-12-17T13:06:38;7.60;42.90
3868;DHT22;1949;48.152;11.528;2022-12-17T13:14:30;7.50;42.60
3868;DHT22;1949;48.152;11.528;2022-12-17T13:17:07;7.60;42.70
3868;DHT22;1949;48.152;11.528;2022-12-17T13:23:12;7.40;42.90
3868;DHT22;1949;48.152;11.528;2022-12-17T13:25:40;7.40;42.90
3868;DHT22;1949;48.152;11.528;2022-12-17T13:28:25;7.40;42.90
3868;DHT22;1949;48.152;11.528;2022-12-17T13:31:05;7.40;42.90
3868;DHT22;1949;48.152;11.528;2022-12-17T13:33:42;7.30;42.80
3868;DHT22;1949;48.152;11.528;2022-12-17T13:41:56;7.30;42.80
3868;DHT22;1949;48.152;11.528;2022-12-17T13:44:34;7.40;42.90
3868;DHT22;1949;48.152;11.528;2022-12-17T13:47:04;7.40;42.90
3868;DHT22;1949;48.152;11.528;2022-12-17T13:49:30;7.30;42.70
3868;DHT22;1949;48.152;11.528;2022-12-17T13:52:04;7.30;42.90
3868;DHT22;1949;48.152;11.528;2022-12-17T13:54:30;7.30;42.90
3868;DHT22;1949;48.152;11.528;2022-12-17T13:57:30;7.30;43.00
3868;DHT22;1949;48.152;11.528;2022-12-17T13:59:59;7.30;43.00
3868;DHT22;1949;48.152;11.528;2022-12-17T14:02:31;7.30;42.80
3868;DHT22;1949;48.152;11.528;2022-12-17T14:04:59;7.20;42.70
3868;DHT22;1949;48.152;11.528;2022-12-17T14:07:27;7.20;42.60
3868;DHT22;1949;48.152;11.528;2022-12-17T14:09:53;7.10;42.70
3868;DHT22;1949;48.152;11.528;2022-12-17T14:12:22;7.10;42.70
3868;DHT22;1949;48.152;11.528;2022-12-17T14:17:25;7.00;42.70
3868;DHT22;1949;48.152;11.528;2022-12-17T14:19:58;7.00;42.90
3868;DHT22;1949;48.152;11.528;2022-12-17T14:22:31;6.90;42.80
3868;DHT22;1949;48.152;11.528;2022-12-17T14:24:59;6.90;42.80
3868;DHT22;1949;48.152;11.528;2022-12-17T14:27:55;6.90;42.90
3868;DHT22;1949;48.152;11.528;2022-12-17T14:30:41;6.90;42.90
3868;DHT22;1949;48.152;11.528;2022-12-17T14:33:40;6.90;42.90
3868;DHT22;1949;48.152;11.528;2022-12-17T14:36:18;6.90;42.90
3868;DHT22;1949;48.152;11.528;2022-12-17T14:38:59;6.80;42.90
3868;DHT22;1949;48.152;11.528;2022-12-17T14:41:26;6.90;42.90
3868;DHT22;1949;48.152;11.528;2022-12-17T14:44:30;6.80;42.90
3868;DHT22;1949;48.152;11.528;2022-12-17T14:47:17;6.80;42.90
3868;DHT22;1949;48.152;11.528;2022-12-17T14:55:19;6.70;42.80
3868;DHT22;1949;48.152;11.528;2022-12-17T14:57:45;6.70;42.90
3868;DHT22;1949;48.152;11.528;2022-12-17T15:00:12;6.70;42.90
3868;DHT22;1949;48.152;11.528;2022-12-17T15:02:38;6.70;42.90
3868;DHT22;1949;48.152;11.528;2022-12-17T15:05:04;6.70;42.90
3868;DHT22;1949;48.152;11.528;2022-12-17T15:07:30;6.70;42.90
3868;DHT22;1949;48.152;11.528;2022-12-17T15:09:56;6.60;42.80
3868;DHT22;1949;48.152;11.528;2022-12-17T15:12:23;6.60;43.10
3868;DHT22;1949;48.152;11.528;2022-12-17T15:14:51;6.60;42.80
3868;DHT22;1949;48.152;11.528;2022-12-17T15:17:17;6.60;42.80
3868;DHT22;1949;48.152;11.528;2022-12-17T15:19:43;6.70;42.90
3868;DHT22;1949;48.152;11.528;2022-12-17T15:22:17;6.60;42.80
3868;DHT22;1949;48.152;11.528;2022-12-17T15:24:44;6.60;42.80
3868;DHT22;1949;48.152;11.528;2022-12-17T15:27:15;6.60;42.80
3868;DHT22;1949;48.152;11.528;2022-12-17T15:29:42;6.60;42.80
3868;DHT22;1949;48.152;11.528;2022-12-17T15:32:19;6.50;42.70
3868;DHT22;1949;48.152;11.528;2022-12-17T15:34:46;6.50;42.70
3868;DHT22;1949;48.152;11.528;2022-12-17T15:37:13;6.50;42.70
3868;DHT22;1949;48.152;11.528;2022-12-17T15:39:40;6.50;42.80
3868;DHT22;1949;48.152;11.528;2022-12-17T15:42:07;6.50;42.80
3868;DHT22;1949;48.152;11.528;2022-12-17T15:44:51;6.50;42.80
3868;DHT22;1949;48.152;11.528;2022-12-17T15:47:20;6.50;42.80
3868;DHT22;1949;48.152;11.528;2022-12-17T15:49:48;6.40;42.70
3868;DHT22;1949;48.152;11.528;2022-12-17T15:52:14;6.40;42.80
3868;DHT22;1949;48.152;11.528;2022-12-17T15:54:43;6.40;42.80
3868;DHT22;1949;48.152;11.528;2022-12-17T15:57:10;6.40;42.80
3868;DHT22;1949;48.152;11.528;2022-12-17T15:59:37;6.30;42.70
3868;DHT22;1949;48.152;11.528;2022-12-17T16:02:03;6.50;42.90
3868;DHT22;1949;48.152;11.528;2022-12-17T16:04:29;6.30;42.70
3868;DHT22;1949;48.152;11.528;2022-12-17T16:06:55;6.30;42.80
3868;DHT22;1949;48.152;11.528;2022-12-17T16:09:26;6.20;42.80
3868;DHT22;1949;48.152;11.528;2022-12-17T16:11:55;6.20;43.00
3868;DHT22;1949;48.152;11.528;2022-12-17T16:14:26;6.30;42.90
3868;DHT22;1949;48.152;11.528;2022-12-17T16:16:51;6.20;42.70
3868;DHT22;1949;48.152;11.528;2022-12-17T16:19:19;6.20;42.80
3868;DHT22;1949;48.152;11.528;2022-12-17T16:21:45;6.20;42.80
3868;DHT22;1949;48.152;11.528;2022-12-17T16:24:11;6.20;42.80
3868;DHT22;1949;48.152;11.528;2022-12-17T16:26:37;6.10;42.80
3868;DHT22;1949;48.152;11.528;2022-12-17T16:29:03;6.10;42.80
3868;DHT22;1949;48.152;11.528;2022-12-17T16:31:29;6.10;42.90
3868;DHT22;1949;48.152;11.528;2022-12-17T16:33:55;6.10;42.90
3868;DHT22;1949;48.152;11.528;2022-12-17T16:36:21;6.10;42.80
3868;DHT22;1949;48.152;11.528;2022-12-17T16:38:50;6.10;42.80
3868;DHT22;1949;48.152;11.528;2022-12-17T16:41:19;6.00;42.70
3868;DHT22;1949;48.152;11.528;2022-12-17T16:43:46;6.00;43.30
3868;DHT22;1949;48.152;11.528;2022-12-17T16:46:33;6.00;42.90
3868;DHT22;1949;48.152;11.528;2022-12-17T16:49:06;6.00;42.90
3868;DHT22;1949;48.152;11.528;2022-12-17T16:51:32;6.00;42.90
3868;DHT22;1949;48.152;11.528;2022-12-17T16:54:05;5.90;42.80
3868;DHT22;1949;48.152;11.528;2022-12-17T16:56:35;6.10;43.00
3868;DHT22;1949;48.152;11.528;2022-12-17T16:59:03;6.00;42.90
3868;DHT22;1949;48.152;11.528;2022-12-17T17:01:31;5.80;42.80
3868;DHT22;1949;48.152;11.528;2022-12-17T17:03:57;5.80;42.90
3868;DHT22;1949;48.152;11.528;2022-12-17T17:06:23;5.80;42.90
3868;DHT22;1949;48.152;11.528;2022-12-17T17:08:52;5.70;42.80
3868;DHT22;1949;48.152;11.528;2022-12-17T17:11:24;5.70;42.90
3868;DHT22;1949;48.152;11.528;2022-12-17T17:13:52;5.70;42.90
3868;DHT22;1949;48.152;11.528;2022-12-17T17:16:25;5.60;42.90
3868;DHT22;1949;48.152;11.528;2022-12-17T17:18:52;5.60;43.10
3868;DHT22;1949;48.152;11.528;2022-12-17T17:21:24;5.60;43.00
3868;DHT22;1949;48.152;11.528;2022-12-17T17:24:01;5.60;43.10
3868;DHT22;1949;48.152;11.528;2022-12-17T17:26:29;5.60;43.10
3868;DHT22;1949;48.152;11.528;2022-12-17T17:28:55;5.60;43.10
3868;DHT22;1949;48.152;11.528;2022-12-17T17:31:21;5.60;43.30
3868;DHT22;1949;48.152;11.528;2022-12-17T17:33:49;5.60;43.20
3868;DHT22;1949;48.152;11.528;2022-12-17T17:36:20;5.60;43.20
3868;DHT22;1949;48.152;11.528;2022-12-17T17:38:46;5.60;43.20
3868;DHT22;1949;48.152;11.528;2022-12-17T17:41:16;5.60;43.30
3868;DHT22;1949;48.152;11.528;2022-12-17T17:43:45;5.60;43.20
3868;DHT22;1949;48.152;11.528;2022-12-17T17:46:16;5.60;43.20
3868;DHT22;1949;48.152;11.528;2022-12-17T17:48:45;5.60;43.20
3868;DHT22;1949;48.152;11.528;2022-12-17T17:51:14;5.60;43.20
3868;DHT22;1949;48.152;11.528;2022-12-17T17:53:41;5.60;43.30
3868;DHT22;1949;48.152;11.528;2022-12-17T17:56:12;5.60;43.20
3868;DHT22;1949;48.152;11.528;2022-12-17T17:58:47;5.60;43.20
3868;DHT22;1949;48.152;11.528;2022-12-17T18:01:15;5.50;43.20
3868;DHT22;1949;48.152;11.528;2022-12-17T18:03:41;5.50;43.20
3868;DHT22;1949;48.152;11.528;2022-12-17T18:06:09;5.60;43.30
3868;DHT22;1949;48.152;11.528;2022-12-17T18:08:36;5.60;43.30
3868;DHT22;1949;48.152;11.528;2022-12-17T18:11:04;5.50;43.20
3868;DHT22;1949;48.152;11.528;2022-12-17T18:13:31;5.50;43.20
3868;DHT22;1949;48.152;11.528;2022-12-17T18:16:17;5.50;43.30
3868;DHT22;1949;48.152;11.528;2022-12-17T18:18:43;5.50;43.30
3868;DHT22;1949;48.152;11.528;2022-12-17T18:21:15;5.50;43.30
3868;DHT22;1949;48.152;11.528;2022-12-17T18:23:41;5.50;43.30
3868;DHT22;1949;48.152;11.528;2022-12-17T18:26:16;5.70;43.60
3868;DHT22;1949;48.152;11.528;2022-12-17T18:28:47;5.50;43.50
3868;DHT22;1949;48.152;11.528;2022-12-17T18:31:19;5.60;43.60
3868;DHT22;1949;48.152;11.528;2022-12-17T18:33:49;5.60;43.50
3868;DHT22;1949;48.152;11.528;2022-12-17T18:36:19;5.70;43.60
3868;DHT22;1949;48.152;11.528;2022-12-17T18:38:45;5.70;43.50
3868;DHT22;1949;48.152;11.528;2022-12-17T18:41:15;5.80;43.50
3868;DHT22;1949;48.152;11.528;2022-12-17T18:44:03;5.70;43.40
3868;DHT22;1949;48.152;11.528;2022-12-17T18:46:30;5.70;43.30
3868;DHT22;1949;48.152;11.528;2022-12-17T18:49:04;5.70;43.30
3868;DHT22;1949;48.152;11.528;2022-12-17T18:51:33;5.70;43.30
3868;DHT22;1949;48.152;11.528;2022-12-17T18:54:00;5.70;43.50
3868;DHT22;1949;48.152;11.528;2022-12-17T18:56:27;5.70;43.50
3868;DHT22;1949;48.152;11.528;2022-12-17T18:58:56;5.70;43.50
3868;DHT22;1949;48.152;11.528;2022-12-17T19:01:31;5.70;43.40
3868;DHT22;1949;48.152;11.528;2022-12-17T19:03:59;5.70;43.50